Pagrindinis puslapis
METAR-TAF:

METAR-TAF

Oro uostai :

Tabarka, Tunisas

platuma: 36-57N, ilguma: 008-45E, Aukštis: 20 m

Dabartinis oras

Ataskaita buvo paskelbta 1 valandą ir 9 minutes, ne 20:00 UTC
Vėjas 13 kt iš Pietvakarių
Temperatūra 15°C
Drėgmė 82%
Slėgis 1018 hPa
Matomumas 10 km arba daugiau
Išsisklaidę debesys ne aukštis 2000 ft
Išsisklaidę debesys ne aukštis 3000 ft

METAR: DTKA 272000Z 23013KT 9999 SCT020 SCT030 15/12 Q1018 NOSIG

Laikas: 22:09 (21:09 UTC)

Prognozė

Ataskaita buvo paskelbta 3 valandos ir 9 minutes, ne 18:00 UTC
Prognozė galioja nuo 27 metu 19 UTC su 28 metu 04 UTC
Vėjas 6 kt iš Rytų/Pietryčių
Matomumas: 8000 m
Išsisklaidę debesys ne aukštis 2000 ft
Mažai debesys ne aukštis 2600 ft
Laikinai
nuo 27 metu 19 UTC su 27 metu 24 UTC
Mažai debesys ne aukštis 2600 ft, aukštai iškilę kamuoliniai debesys.
lietus

TAF: DTKA 271800Z 2719/2804 12006KT 8000 SCT020 FEW026 TEMPO 2719/2724 RA FEW026TCU

Orai ataskaitas ir orų prognozės (METAR, TAF).

turimą stotys yra geltonos ir raudonos taškus žemėlapyje.

Perkelti pele per norėdami pamatyti stoties vardą.

Tada spustelėkite, norėdami matyti oro stebėjimo ir prognozės.

Norėdami pakeisti žemėlapį: spustelėkite ant žalios mygtukų su juodo kryžiaus žemyn,; žalią mygtuką su brūkšneliu, jei norite nutolinti; arba žalių rodyklių gretimoms žemėlapius.


METAR-TAF: